createdAt,value
2023-01-11T00:00:32.466Z,0
2023-01-11T00:01:48.856Z,0
2023-01-11T00:03:04.848Z,0
2023-01-11T00:04:21.054Z,0
2023-01-11T00:05:37.230Z,0
2023-01-11T00:06:53.418Z,0
2023-01-11T00:08:09.805Z,0
2023-01-11T00:09:25.996Z,0
2023-01-11T00:10:41.980Z,0
2023-01-11T00:11:58.366Z,0
2023-01-11T00:13:13.573Z,0
2023-01-11T00:14:29.565Z,0
2023-01-11T00:15:45.943Z,0
2023-01-11T00:17:01.948Z,0
2023-01-11T00:18:18.336Z,0
2023-01-11T00:19:34.530Z,0
2023-01-11T00:20:50.714Z,0
2023-01-11T00:22:06.702Z,0
2023-01-11T00:23:23.083Z,0
2023-01-11T00:24:39.281Z,0
2023-01-11T00:25:55.466Z,0
2023-01-11T00:27:11.655Z,0
2023-01-11T00:28:27.854Z,0
2023-01-11T00:29:43.054Z,0
2023-01-11T00:30:59.245Z,0
2023-01-11T00:32:15.437Z,0
2023-01-11T00:33:31.615Z,0
2023-01-11T00:34:47.799Z,0
2023-01-11T00:36:03.991Z,0
2023-01-11T00:37:20.190Z,0
2023-01-11T00:38:36.366Z,0
2023-01-11T00:39:52.560Z,0
2023-01-11T00:41:08.558Z,0
2023-01-11T00:42:24.947Z,0
2023-01-11T00:43:41.128Z,0
2023-01-11T00:44:57.120Z,0
2023-01-11T00:46:12.328Z,0
2023-01-11T00:47:28.721Z,0
2023-01-11T00:48:44.907Z,0
2023-01-11T00:50:01.094Z,0
2023-01-11T00:51:17.295Z,0
2023-01-11T00:52:33.275Z,0
2023-01-11T00:53:49.667Z,0
2023-01-11T00:55:05.862Z,0
2023-01-11T00:56:22.044Z,0
2023-01-11T00:57:38.227Z,0
2023-01-11T00:58:54.419Z,0
2023-01-11T01:00:10.615Z,0
2023-01-11T01:01:26.818Z,0
2023-01-11T01:02:42.010Z,0
2023-01-11T01:03:58.194Z,0
2023-01-11T01:05:14.392Z,0
2023-01-11T01:06:30.376Z,0
2023-01-11T01:07:46.773Z,0
2023-01-11T01:09:02.951Z,0
2023-01-11T01:10:18.169Z,0
2023-01-11T01:11:34.344Z,0
2023-01-11T01:12:50.551Z,0
2023-01-11T01:14:06.724Z,0
2023-01-11T01:15:22.725Z,0
2023-01-11T01:16:39.114Z,0
2023-01-11T01:17:55.294Z,0
2023-01-11T01:19:11.484Z,0
2023-01-11T01:20:27.680Z,0
2023-01-11T01:21:43.868Z,0
2023-01-11T01:22:59.844Z,0
2023-01-11T01:24:16.244Z,0
2023-01-11T01:25:32.426Z,0
2023-01-11T01:26:47.436Z,0
2023-01-11T01:28:03.626Z,0
2023-01-11T01:29:20.027Z,0
2023-01-11T01:30:36.198Z,0
2023-01-11T01:31:52.190Z,0
2023-01-11T01:33:08.581Z,0
2023-01-11T01:34:24.765Z,0
2023-01-11T01:35:40.961Z,0
2023-01-11T01:36:57.161Z,0
2023-01-11T01:38:13.134Z,0
2023-01-11T01:39:29.315Z,0
2023-01-11T01:40:45.521Z,0
2023-01-11T01:42:01.911Z,0
2023-01-11T01:43:17.119Z,0
2023-01-11T01:44:33.300Z,0
2023-01-11T01:45:49.296Z,0
2023-01-11T01:47:05.685Z,0
2023-01-11T01:48:21.875Z,0
2023-01-11T01:49:37.843Z,0
2023-01-11T01:50:54.244Z,0
2023-01-11T01:52:10.438Z,0
2023-01-11T01:53:26.421Z,0
2023-01-11T01:54:42.827Z,0
2023-01-11T01:55:59.015Z,0
2023-01-11T01:57:15.208Z,0
2023-01-11T01:59:47.567Z,0
2023-01-11T02:01:02.566Z,0
2023-01-11T02:02:18.964Z,0
2023-01-11T02:03:34.949Z,0
2023-01-11T02:04:51.148Z,0
2023-01-11T02:06:07.542Z,0
2023-01-11T02:07:23.505Z,0
2023-01-11T02:08:39.695Z,0
2023-01-11T02:09:56.098Z,0
2023-01-11T02:11:12.295Z,0
2023-01-11T02:12:28.494Z,0
2023-01-11T02:13:44.676Z,0
2023-01-11T02:15:00.868Z,0
2023-01-11T02:16:16.829Z,0
2023-01-11T02:17:32.255Z,0
2023-01-11T02:18:48.461Z,0
2023-01-11T02:20:04.646Z,0
2023-01-11T02:21:20.825Z,0
2023-01-11T02:22:37.008Z,0
2023-01-11T02:23:53.206Z,0
2023-01-11T02:25:09.394Z,0
2023-01-11T02:26:25.593Z,0
2023-01-11T02:27:41.776Z,0
2023-01-11T02:28:57.750Z,0
2023-01-11T02:30:14.157Z,0
2023-01-11T02:31:30.131Z,0
2023-01-11T02:32:46.537Z,0
2023-01-11T02:34:01.740Z,0
2023-01-11T02:35:17.925Z,0
2023-01-11T02:36:34.107Z,0
2023-01-11T02:37:50.076Z,0
2023-01-11T02:39:06.267Z,0
2023-01-11T02:40:22.680Z,0
2023-01-11T02:41:38.870Z,0
2023-01-11T02:42:55.069Z,0
2023-01-11T02:44:11.254Z,0
2023-01-11T02:45:27.445Z,0
2023-01-11T02:46:43.402Z,0
2023-01-11T02:47:59.586Z,0
2023-01-11T02:49:16.008Z,0
2023-01-11T02:50:31.223Z,0
2023-01-11T02:51:47.408Z,0
2023-01-11T02:53:03.598Z,0
2023-01-11T02:54:19.782Z,0
2023-01-11T02:55:35.974Z,0
2023-01-11T02:56:52.153Z,0
2023-01-11T02:58:08.358Z,0
2023-01-11T02:59:24.313Z,0
2023-01-11T03:00:40.723Z,0
2023-01-11T03:01:56.913Z,0
2023-01-11T03:03:13.104Z,0
2023-01-11T03:04:29.073Z,0
2023-01-11T03:05:45.481Z,0
2023-01-11T03:07:00.686Z,0
2023-01-11T03:08:16.872Z,0
2023-01-11T03:09:33.080Z,0
2023-01-11T03:10:49.255Z,0
2023-01-11T03:12:05.451Z,0
2023-01-11T03:13:21.642Z,0
2023-01-11T03:14:37.822Z,0
2023-01-11T03:15:54.012Z,0
2023-01-11T03:17:09.979Z,0
2023-01-11T03:18:26.385Z,0
2023-01-11T03:19:42.582Z,0
2023-01-11T03:20:58.540Z,0
2023-01-11T03:22:14.960Z,0
2023-01-11T03:23:30.168Z,0
2023-01-11T03:24:46.360Z,0
2023-01-11T03:26:02.543Z,0
2023-01-11T03:27:18.744Z,0
2023-01-11T03:28:34.696Z,0
2023-01-11T03:29:51.117Z,0
2023-01-11T03:31:07.307Z,0
2023-01-11T03:32:23.485Z,0
2023-01-11T03:33:39.689Z,0
2023-01-11T03:34:55.872Z,0
2023-01-11T03:36:12.063Z,0
2023-01-11T03:37:28.009Z,0
2023-01-11T03:38:44.207Z,0
2023-01-11T03:39:59.413Z,0
2023-01-11T03:41:15.831Z,0
2023-01-11T03:42:32.027Z,0
2023-01-11T03:43:48.219Z,0
2023-01-11T03:45:04.402Z,0
2023-01-11T03:46:20.580Z,0
2023-01-11T03:47:36.548Z,0
2023-01-11T03:48:52.973Z,0
2023-01-11T03:50:08.921Z,0
2023-01-11T03:51:25.115Z,0
2023-01-11T03:52:41.540Z,0
2023-01-11T03:53:57.722Z,0
2023-01-11T03:55:13.909Z,0
2023-01-11T03:56:29.126Z,0
2023-01-11T03:57:45.318Z,0
2023-01-11T03:59:01.258Z,0
2023-01-11T04:00:17.000Z,0
2023-01-11T04:01:33.879Z,0
2023-01-11T04:02:50.057Z,0
2023-01-11T04:04:06.252Z,0
2023-01-11T04:05:22.439Z,0
2023-01-11T04:06:38.629Z,0
2023-01-11T04:07:54.818Z,0
2023-01-11T04:09:11.019Z,0
2023-01-11T04:10:26.969Z,0
2023-01-11T04:11:43.402Z,0
2023-01-11T04:12:58.589Z,0
2023-01-11T04:14:14.791Z,0
2023-01-11T04:15:30.967Z,0
2023-01-11T04:16:46.917Z,0
2023-01-11T04:18:03.352Z,0
2023-01-11T04:19:19.536Z,0
2023-01-11T04:20:35.735Z,0
2023-01-11T04:21:51.925Z,0
2023-01-11T04:23:08.116Z,0
2023-01-11T04:24:24.291Z,0
2023-01-11T04:25:40.499Z,0
2023-01-11T04:26:56.669Z,0
2023-01-11T04:28:12.874Z,0
2023-01-11T04:29:27.827Z,0
2023-01-11T04:30:44.263Z,0
2023-01-11T04:32:00.458Z,0
2023-01-11T04:33:16.640Z,0
2023-01-11T04:34:32.837Z,0
2023-01-11T04:35:49.012Z,0
2023-01-11T04:37:04.973Z,0
2023-01-11T04:38:21.402Z,0
2023-01-11T04:39:37.579Z,0
2023-01-11T04:40:53.534Z,0
2023-01-11T04:42:09.720Z,0
2023-01-11T04:43:26.148Z,0
2023-01-11T04:44:42.354Z,0
2023-01-11T04:45:57.560Z,0
2023-01-11T04:47:13.747Z,0
2023-01-11T04:48:29.680Z,0
2023-01-11T04:49:46.115Z,0
2023-01-11T04:51:02.301Z,0
2023-01-11T04:52:18.494Z,0
2023-01-11T04:53:34.684Z,0
2023-01-11T04:54:50.870Z,0
2023-01-11T04:56:06.805Z,0
2023-01-11T04:57:23.263Z,0
2023-01-11T04:58:39.443Z,0
2023-01-11T04:59:55.640Z,0
2023-01-11T05:01:11.818Z,0
2023-01-11T05:02:27.030Z,0
2023-01-11T05:03:42.957Z,0
2023-01-11T05:04:59.399Z,0
2023-01-11T05:06:15.593Z,0
2023-01-11T05:07:31.782Z,0
2023-01-11T05:08:47.718Z,0
2023-01-11T05:10:04.156Z,0
2023-01-11T05:11:20.102Z,0
2023-01-11T05:12:36.534Z,0
2023-01-11T05:13:52.721Z,0
2023-01-11T05:15:08.667Z,0
2023-01-11T05:16:25.104Z,0
2023-01-11T05:17:41.305Z,0
2023-01-11T05:18:56.503Z,0
2023-01-11T05:20:12.447Z,0
2023-01-11T05:21:28.883Z,0
2023-01-11T05:22:45.075Z,0
2023-01-11T05:24:01.003Z,0
2023-01-11T05:25:16.477Z,0
2023-01-11T05:26:32.409Z,0
2023-01-11T05:27:48.859Z,0
2023-01-11T05:29:05.046Z,0
2023-01-11T05:30:21.226Z,0
2023-01-11T05:31:37.417Z,0
2023-01-11T05:32:53.601Z,0
2023-01-11T05:34:09.544Z,0
2023-01-11T05:35:25.986Z,0
2023-01-11T05:36:42.174Z,0
2023-01-11T05:37:58.363Z,0
2023-01-11T05:39:14.559Z,0
2023-01-11T05:40:30.743Z,0
2023-01-11T05:41:45.683Z,0
2023-01-11T05:43:02.138Z,0
2023-01-11T05:44:18.322Z,0
2023-01-11T05:45:34.509Z,0
2023-01-11T05:46:50.437Z,0
2023-01-11T05:48:06.903Z,0
2023-01-11T05:49:23.083Z,0
2023-01-11T05:50:39.003Z,0
2023-01-11T05:51:55.458Z,0
2023-01-11T05:53:11.643Z,0
2023-01-11T05:54:27.587Z,0
2023-01-11T05:55:44.021Z,0
2023-01-11T05:56:59.948Z,0
2023-01-11T05:58:15.155Z,0
2023-01-11T05:59:31.620Z,0
2023-01-11T06:00:47.810Z,0
2023-01-11T06:02:04.002Z,0
2023-01-11T06:03:20.176Z,0
2023-01-11T06:04:36.109Z,0
2023-01-11T06:05:52.562Z,0
2023-01-11T06:07:08.753Z,0
2023-01-11T06:08:24.942Z,0
2023-01-11T06:09:41.120Z,0
2023-01-11T06:10:57.056Z,0
2023-01-11T06:12:13.243Z,0
2023-01-11T06:13:29.690Z,0
2023-01-11T06:14:44.910Z,0
2023-01-11T06:16:01.097Z,0
2023-01-11T06:17:17.289Z,0
2023-01-11T06:18:33.205Z,0
2023-01-11T06:19:49.386Z,0
2023-01-11T06:21:05.841Z,0
2023-01-11T06:22:22.046Z,0
2023-01-11T06:23:37.964Z,0
2023-01-11T06:24:54.144Z,0
2023-01-11T06:26:10.609Z,0
2023-01-11T06:27:26.521Z,0
2023-01-11T06:28:42.992Z,0
2023-01-11T06:29:58.904Z,0
2023-01-11T06:31:14.383Z,0
2023-01-11T06:32:30.291Z,0
2023-01-11T06:33:46.762Z,0
2023-01-11T06:35:02.678Z,0
2023-01-11T06:36:18.857Z,0
2023-01-11T06:37:35.323Z,0
2023-01-11T06:38:51.250Z,0
2023-01-11T06:40:07.700Z,0
2023-01-11T06:41:23.607Z,0
2023-01-11T06:42:39.803Z,0
2023-01-11T06:43:56.261Z,0
2023-01-11T06:45:12.457Z,0
2023-01-11T06:46:28.631Z,0
2023-01-11T06:47:43.575Z,0
2023-01-11T06:49:00.026Z,0
2023-01-11T06:50:15.941Z,0
2023-01-11T06:51:32.401Z,0
2023-01-11T06:52:48.599Z,0
2023-01-11T06:54:04.787Z,0
2023-01-11T06:55:20.691Z,0
2023-01-11T06:56:37.157Z,0
2023-01-11T06:57:53.064Z,0
2023-01-11T06:59:09.250Z,0
2023-01-11T07:00:25.729Z,0
2023-01-11T07:01:41.911Z,0
2023-01-11T07:02:58.086Z,0
2023-01-11T07:04:13.302Z,0
2023-01-11T07:05:29.198Z,0
2023-01-11T07:06:45.662Z,0
2023-01-11T07:08:01.853Z,0
2023-01-11T07:09:18.046Z,0
2023-01-11T07:10:33.962Z,0
2023-01-11T07:11:50.415Z,0
2023-01-11T07:13:06.338Z,0
2023-01-11T07:14:22.515Z,0
2023-01-11T07:15:38.992Z,0
2023-01-11T07:16:55.181Z,0
2023-01-11T07:18:11.356Z,0
2023-01-11T07:19:27.548Z,0
2023-01-11T07:20:42.744Z,0
2023-01-11T07:21:58.947Z,0
2023-01-11T07:23:15.126Z,0
2023-01-11T07:24:31.315Z,0
2023-01-11T07:25:47.226Z,0
2023-01-11T07:27:03.685Z,0
2023-01-11T07:28:19.585Z,0
2023-01-11T07:29:36.064Z,0
2023-01-11T07:30:51.962Z,0
2023-01-11T07:32:08.147Z,0
2023-01-11T07:33:24.628Z,0
2023-01-11T07:34:40.808Z,0
2023-01-11T07:35:56.715Z,0
2023-01-11T07:37:12.208Z,5
2023-01-11T07:38:28.390Z,5
2023-01-11T07:39:44.573Z,5
2023-01-11T07:41:00.770Z,5
2023-01-11T07:42:16.950Z,5
2023-01-11T07:43:32.849Z,5
2023-01-11T07:44:49.337Z,5
2023-01-11T07:46:05.236Z,5
2023-01-11T07:47:21.709Z,5
2023-01-11T07:48:37.602Z,5
2023-01-11T07:49:54.072Z,5
2023-01-11T07:51:09.972Z,5
2023-01-11T07:52:26.458Z,5
2023-01-11T07:53:41.667Z,5
2023-01-11T07:54:57.840Z,5
2023-01-11T07:56:14.040Z,5
2023-01-11T07:57:29.922Z,5
2023-01-11T07:58:46.117Z,5
2023-01-11T08:00:02.599Z,5
2023-01-11T08:01:18.787Z,5
2023-01-11T08:02:34.971Z,5
2023-01-11T08:03:51.150Z,5
2023-01-11T08:05:07.345Z,5
2023-01-11T08:06:23.545Z,5
2023-01-11T08:07:39.728Z,5
2023-01-11T08:08:55.904Z,11
2023-01-11T08:10:11.108Z,11
2023-01-11T08:11:27.301Z,11
2023-01-11T08:12:43.184Z,11
2023-01-11T08:13:59.376Z,11
2023-01-11T08:15:15.862Z,11
2023-01-11T08:16:32.051Z,11
2023-01-11T08:17:48.229Z,11
2023-01-11T08:19:04.120Z,11
2023-01-11T08:20:20.606Z,11
2023-01-11T08:21:36.508Z,11
2023-01-11T08:22:52.989Z,11
2023-01-11T08:24:09.181Z,11
2023-01-11T08:25:25.374Z,11
2023-01-11T08:26:40.559Z,11
2023-01-11T08:27:56.758Z,11
2023-01-11T08:29:12.637Z,11
2023-01-11T08:30:28.830Z,11
2023-01-11T08:31:45.315Z,11
2023-01-11T08:33:01.505Z,11
2023-01-11T08:34:17.394Z,11
2023-01-11T08:35:33.887Z,11
2023-01-11T08:36:49.768Z,11
2023-01-11T08:38:06.252Z,11
2023-01-11T08:39:22.447Z,11
2023-01-11T08:40:38.623Z,11
2023-01-11T08:41:54.822Z,11
2023-01-11T08:43:09.712Z,11
2023-01-11T08:44:26.208Z,16
2023-01-11T08:45:42.398Z,16
2023-01-11T08:46:58.579Z,16
2023-01-11T08:48:14.774Z,16
2023-01-11T08:49:30.658Z,16
2023-01-11T08:50:47.149Z,16
2023-01-11T08:52:03.039Z,16
2023-01-11T08:53:19.519Z,16
2023-01-11T08:54:35.701Z,16
2023-01-11T08:55:51.887Z,22
2023-01-11T08:57:08.089Z,22
2023-01-11T08:58:24.269Z,22
2023-01-11T08:59:39.478Z,22
2023-01-11T09:00:55.663Z,22
2023-01-11T09:02:11.847Z,22
2023-01-11T09:03:28.040Z,22
2023-01-11T09:04:44.221Z,22
2023-01-11T09:06:00.402Z,22
2023-01-11T09:07:16.297Z,22
2023-01-11T09:08:32.467Z,28
2023-01-11T09:09:48.980Z,22
2023-01-11T09:11:05.162Z,22
2023-01-11T09:12:21.343Z,22
2023-01-11T09:13:37.533Z,22
2023-01-11T09:14:53.425Z,22
2023-01-11T09:16:08.925Z,22
2023-01-11T09:17:24.810Z,22
2023-01-11T09:18:40.986Z,22
2023-01-11T09:19:57.486Z,28
2023-01-11T09:21:13.670Z,28
2023-01-11T09:22:29.553Z,28
2023-01-11T09:23:45.732Z,28
2023-01-11T09:25:02.244Z,33
2023-01-11T09:26:18.434Z,33
2023-01-11T09:27:34.614Z,33
2023-01-11T09:28:50.795Z,39
2023-01-11T09:30:06.669Z,39
2023-01-11T09:31:23.168Z,39
2023-01-11T09:32:38.076Z,39
2023-01-11T09:33:54.253Z,33
2023-01-11T09:35:10.751Z,33
2023-01-11T09:36:26.933Z,33
2023-01-11T09:37:43.132Z,28
2023-01-11T09:38:59.322Z,28
2023-01-11T09:40:14.521Z,28
2023-01-11T09:41:30.717Z,22
2023-01-11T09:42:46.906Z,22
2023-01-11T09:44:03.083Z,22
2023-01-11T09:45:19.285Z,22
2023-01-11T09:46:35.417Z,22
2023-01-11T09:47:51.602Z,22
2023-01-11T09:49:07.841Z,22
2023-01-11T09:50:24.037Z,22
2023-01-11T09:51:40.206Z,22
2023-01-11T09:52:56.347Z,16
2023-01-11T09:54:12.000Z,22
2023-01-11T09:55:28.720Z,16
2023-01-11T09:56:43.989Z,16
2023-01-11T09:58:00.101Z,16
2023-01-11T09:59:16.290Z,16
2023-01-11T10:00:32.492Z,22
2023-01-11T10:01:48.738Z,16
2023-01-11T10:03:04.917Z,22
2023-01-11T10:04:21.036Z,16
2023-01-11T10:05:37.301Z,22
2023-01-11T10:06:53.473Z,22
2023-01-11T10:08:09.612Z,16
2023-01-11T10:09:25.864Z,22
2023-01-11T10:10:42.046Z,22
2023-01-11T10:11:58.224Z,22
2023-01-11T10:13:13.444Z,22
2023-01-11T10:14:29.630Z,22
2023-01-11T10:15:45.749Z,16
2023-01-11T10:17:01.929Z,22
2023-01-11T10:18:18.131Z,22
2023-01-11T10:19:34.367Z,22
2023-01-11T10:20:50.500Z,28
2023-01-11T10:22:06.678Z,28
2023-01-11T10:23:22.864Z,28
2023-01-11T10:24:39.060Z,28
2023-01-11T10:25:55.246Z,28
2023-01-11T10:27:11.499Z,28
2023-01-11T10:28:27.688Z,28
2023-01-11T10:29:42.883Z,22
2023-01-11T10:30:59.014Z,33
2023-01-11T10:32:15.271Z,28
2023-01-11T10:33:31.442Z,22
2023-01-11T10:34:47.631Z,28
2023-01-11T10:36:03.756Z,22
2023-01-11T10:37:19.939Z,28
2023-01-11T10:38:36.134Z,22
2023-01-11T10:39:52.389Z,22
2023-01-11T10:41:08.577Z,28
2023-01-11T10:42:24.755Z,22
2023-01-11T10:43:40.943Z,22
2023-01-11T10:44:57.130Z,28
2023-01-11T10:46:12.278Z,28
2023-01-11T10:47:28.538Z,22
2023-01-11T10:48:44.651Z,22
2023-01-11T10:50:00.902Z,28
2023-01-11T10:51:17.020Z,28
2023-01-11T10:52:33.276Z,28
2023-01-11T10:53:49.401Z,28
2023-01-11T10:55:05.660Z,33
2023-01-11T10:56:21.846Z,28
2023-01-11T10:57:38.021Z,28
2023-01-11T10:58:54.210Z,28
2023-01-11T11:00:10.399Z,28
2023-01-11T11:01:26.515Z,28
2023-01-11T11:02:41.795Z,28
2023-01-11T11:03:57.985Z,33
2023-01-11T11:05:14.095Z,22
2023-01-11T11:06:30.348Z,28
2023-01-11T11:07:46.538Z,28
2023-01-11T11:09:02.655Z,22
2023-01-11T11:10:18.911Z,22
2023-01-11T11:11:35.037Z,22
2023-01-11T11:12:51.293Z,22
2023-01-11T11:14:07.480Z,28
2023-01-11T11:15:23.590Z,28
2023-01-11T11:16:39.778Z,22
2023-01-11T11:17:56.046Z,22
2023-01-11T11:19:11.242Z,28
2023-01-11T11:20:27.433Z,28
2023-01-11T11:21:43.539Z,22
2023-01-11T11:22:59.801Z,22
2023-01-11T11:24:15.929Z,28
2023-01-11T11:25:32.179Z,22
2023-01-11T11:26:48.302Z,22
2023-01-11T11:28:04.552Z,22
2023-01-11T11:29:20.759Z,22
2023-01-11T11:30:36.945Z,16
2023-01-11T11:31:53.045Z,16
2023-01-11T11:33:09.304Z,22
2023-01-11T11:34:25.508Z,16
2023-01-11T11:35:40.698Z,16
2023-01-11T11:36:56.894Z,16
2023-01-11T11:38:13.070Z,16
2023-01-11T11:39:29.181Z,16
2023-01-11T11:40:45.452Z,16
2023-01-11T11:42:01.649Z,16
2023-01-11T11:43:17.822Z,16
2023-01-11T11:44:34.010Z,22
2023-01-11T11:45:50.194Z,22
2023-01-11T11:47:06.301Z,16
2023-01-11T11:48:22.579Z,16
2023-01-11T11:49:38.770Z,22
2023-01-11T11:50:54.954Z,16
2023-01-11T11:52:10.153Z,16
2023-01-11T11:53:26.257Z,16
2023-01-11T11:54:42.442Z,16
2023-01-11T11:55:58.728Z,22
2023-01-11T11:57:14.830Z,22
2023-01-11T11:58:31.102Z,16
2023-01-11T11:59:47.282Z,16
2023-01-11T12:01:03.476Z,16
2023-01-11T12:02:19.562Z,16
2023-01-11T12:03:35.837Z,22
2023-01-11T12:04:52.024Z,16
2023-01-11T12:06:08.137Z,22
2023-01-11T12:07:24.400Z,16
2023-01-11T12:08:39.611Z,22
2023-01-11T12:09:55.711Z,22
2023-01-11T12:11:11.984Z,16
2023-01-11T12:12:28.094Z,22
2023-01-11T12:13:44.273Z,28
2023-01-11T12:15:00.549Z,22
2023-01-11T12:16:16.729Z,16
2023-01-11T12:17:32.838Z,16
2023-01-11T12:18:49.116Z,16
2023-01-11T12:20:05.211Z,22
2023-01-11T12:21:21.492Z,28
2023-01-11T12:22:37.673Z,28
2023-01-11T12:23:53.861Z,22
2023-01-11T12:25:09.054Z,22
2023-01-11T12:26:25.240Z,22
2023-01-11T12:27:41.430Z,22
2023-01-11T12:28:57.535Z,22
2023-01-11T12:30:13.807Z,16
2023-01-11T12:31:29.994Z,16
2023-01-11T12:32:46.102Z,16
2023-01-11T12:34:02.371Z,16
2023-01-11T12:35:18.465Z,16
2023-01-11T12:36:34.759Z,11
2023-01-11T12:37:50.930Z,16
2023-01-11T12:39:07.024Z,22
2023-01-11T12:40:23.228Z,16
2023-01-11T12:41:38.516Z,16
2023-01-11T12:42:54.701Z,16
2023-01-11T12:44:10.807Z,11
2023-01-11T12:45:27.073Z,11
2023-01-11T12:46:43.272Z,22
2023-01-11T12:47:59.362Z,16
2023-01-11T12:49:15.639Z,16
2023-01-11T12:50:31.835Z,22
2023-01-11T12:51:48.022Z,22
2023-01-11T12:53:04.207Z,16
2023-01-11T12:54:20.285Z,16
2023-01-11T12:55:36.481Z,16
2023-01-11T12:56:52.773Z,11
2023-01-11T12:58:07.867Z,16
2023-01-11T12:59:24.152Z,16
2023-01-11T13:00:40.348Z,16
2023-01-11T13:01:56.533Z,16
2023-01-11T13:03:12.627Z,16
2023-01-11T13:04:28.813Z,16
2023-01-11T13:05:45.104Z,16
2023-01-11T13:07:01.000Z,11
2023-01-11T13:08:17.470Z,11
2023-01-11T13:09:33.555Z,11
2023-01-11T13:10:49.741Z,11
2023-01-11T13:12:06.036Z,11
2023-01-11T13:13:22.119Z,11
2023-01-11T13:14:37.432Z,11
2023-01-11T13:15:53.621Z,11
2023-01-11T13:17:09.808Z,11
2023-01-11T13:18:25.884Z,11
2023-01-11T13:19:42.166Z,11
2023-01-11T13:20:58.359Z,11
2023-01-11T13:22:14.455Z,11
2023-01-11T13:23:30.727Z,5
2023-01-11T13:24:46.918Z,5
2023-01-11T13:26:03.119Z,5
2023-01-11T13:27:19.291Z,5
2023-01-11T13:28:35.387Z,5
2023-01-11T13:29:51.672Z,5
2023-01-11T13:31:06.775Z,5
2023-01-11T13:32:22.962Z,5
2023-01-11T13:33:39.149Z,5
2023-01-11T13:34:55.327Z,5
2023-01-11T13:36:11.626Z,5
2023-01-11T13:37:27.815Z,5
2023-01-11T13:38:43.894Z,5
2023-01-11T13:40:00.194Z,5
2023-01-11T13:41:16.276Z,5
2023-01-11T13:42:32.562Z,5
2023-01-11T13:43:48.649Z,5
2023-01-11T13:45:04.948Z,5
2023-01-11T13:46:21.124Z,5
2023-01-11T13:47:36.215Z,5
2023-01-11T13:48:52.413Z,5
2023-01-11T13:50:08.702Z,5
2023-01-11T13:51:24.892Z,5
2023-01-11T13:52:41.073Z,5
2023-01-11T13:53:57.266Z,5
2023-01-11T13:55:12.477Z,5
2023-01-11T13:56:28.564Z,5
2023-01-11T13:57:44.853Z,5
2023-01-11T13:59:01.035Z,5
2023-01-11T14:00:17.121Z,5
2023-01-11T14:01:33.415Z,5
2023-01-11T14:02:49.603Z,5
2023-01-11T14:04:05.677Z,5
2023-01-11T14:05:21.000Z,5
2023-01-11T14:06:38.165Z,0
2023-01-11T14:07:54.353Z,0
2023-01-11T14:09:10.541Z,5
2023-01-11T14:10:26.739Z,0
2023-01-11T14:11:41.819Z,0
2023-01-11T14:12:58.118Z,0
2023-01-11T14:14:14.303Z,0
2023-01-11T14:15:30.388Z,0
2023-01-11T14:16:46.679Z,0
2023-01-11T14:18:02.757Z,5
2023-01-11T14:19:18.940Z,5
2023-01-11T14:20:35.237Z,5
2023-01-11T14:21:51.444Z,0
2023-01-11T14:23:07.619Z,0
2023-01-11T14:24:23.691Z,0
2023-01-11T14:25:39.992Z,0
2023-01-11T14:26:56.175Z,0
2023-01-11T14:28:11.387Z,0
2023-01-11T14:29:27.570Z,0
2023-01-11T14:30:43.771Z,0
2023-01-11T14:31:59.952Z,0
2023-01-11T14:33:16.138Z,0
2023-01-11T14:34:32.218Z,0
2023-01-11T14:35:48.402Z,0
2023-01-11T14:37:04.578Z,0
2023-01-11T14:38:20.880Z,0
2023-01-11T14:39:37.066Z,0
2023-01-11T14:40:53.254Z,0
2023-01-11T14:42:09.332Z,0
2023-01-11T14:43:25.637Z,0
2023-01-11T14:44:40.839Z,0
2023-01-11T14:45:57.028Z,0
2023-01-11T14:47:13.219Z,0
2023-01-11T14:48:29.411Z,0
2023-01-11T14:49:45.466Z,0
2023-01-11T14:51:01.781Z,0
2023-01-11T14:52:17.963Z,0
2023-01-11T14:53:34.152Z,0
2023-01-11T14:54:50.211Z,0
2023-01-11T14:56:06.527Z,0
2023-01-11T14:57:22.599Z,0
2023-01-11T14:58:38.914Z,0
2023-01-11T14:59:55.084Z,0
2023-01-11T15:01:10.296Z,0
2023-01-11T15:02:26.363Z,0
2023-01-11T15:03:42.543Z,0
2023-01-11T15:04:58.733Z,0
2023-01-11T15:06:15.046Z,0
2023-01-11T15:07:31.239Z,0
2023-01-11T15:08:47.411Z,0
2023-01-11T15:10:03.609Z,0
2023-01-11T15:11:19.788Z,0
2023-01-11T15:12:35.849Z,0
2023-01-11T15:13:52.046Z,0
2023-01-11T15:15:08.368Z,0
2023-01-11T15:16:24.551Z,0
2023-01-11T15:17:39.744Z,0
2023-01-11T15:18:55.930Z,0
2023-01-11T15:20:12.006Z,0
2023-01-11T15:21:28.318Z,0
2023-01-11T15:22:44.494Z,0
2023-01-11T15:24:00.681Z,0
2023-01-11T15:25:16.885Z,0
2023-01-11T15:26:33.070Z,0
2023-01-11T15:27:49.132Z,0
2023-01-11T15:29:05.436Z,0
2023-01-11T15:30:21.617Z,0
2023-01-11T15:31:37.812Z,0
2023-01-11T15:32:54.000Z,0
2023-01-11T15:34:09.209Z,0
2023-01-11T15:35:25.254Z,0
2023-01-11T15:36:41.576Z,0
2023-01-11T15:37:57.763Z,0
2023-01-11T15:39:13.964Z,0
2023-01-11T15:40:30.133Z,0
2023-01-11T15:41:46.190Z,0
2023-01-11T15:43:02.381Z,0
2023-01-11T15:44:18.710Z,0
2023-01-11T15:45:34.886Z,0
2023-01-11T15:46:51.088Z,0
2023-01-11T15:48:07.271Z,0
2023-01-11T15:49:23.463Z,0
2023-01-11T15:50:38.525Z,0
2023-01-11T15:51:54.840Z,0
2023-01-11T15:53:11.035Z,0
2023-01-11T15:54:27.078Z,0
2023-01-11T15:55:43.409Z,0
2023-01-11T15:56:59.595Z,0
2023-01-11T15:58:15.791Z,0
2023-01-11T15:59:31.833Z,0
2023-01-11T16:00:48.162Z,0
2023-01-11T16:02:04.349Z,0
2023-01-11T16:03:20.530Z,0
2023-01-11T16:04:36.714Z,0
2023-01-11T16:05:52.765Z,0
2023-01-11T16:07:07.969Z,0
2023-01-11T16:08:24.301Z,0
2023-01-11T16:09:40.480Z,0
2023-01-11T16:10:56.675Z,0
2023-01-11T16:12:12.852Z,0
2023-01-11T16:13:28.916Z,0
2023-01-11T16:14:45.234Z,0
2023-01-11T16:16:01.279Z,0
2023-01-11T16:17:17.617Z,0
2023-01-11T16:18:33.814Z,0
2023-01-11T16:19:49.863Z,0
2023-01-11T16:21:06.045Z,0
2023-01-11T16:22:22.381Z,0
2023-01-11T16:23:37.584Z,0
2023-01-11T16:24:53.761Z,0
2023-01-11T16:26:09.804Z,0
2023-01-11T16:27:26.140Z,0
2023-01-11T16:28:42.187Z,0
2023-01-11T16:29:58.520Z,0
2023-01-11T16:31:14.716Z,0
2023-01-11T16:32:30.894Z,0
2023-01-11T16:33:46.955Z,0
2023-01-11T16:35:03.272Z,0
2023-01-11T16:36:19.322Z,0
2023-01-11T16:37:35.663Z,0
2023-01-11T16:38:51.840Z,0
2023-01-11T16:40:06.916Z,0
2023-01-11T16:41:23.246Z,0
2023-01-11T16:42:39.434Z,0
2023-01-11T16:43:55.479Z,0
2023-01-11T16:45:11.666Z,0
2023-01-11T16:46:27.989Z,0
2023-01-11T16:47:44.180Z,0
2023-01-11T16:49:00.231Z,0
2023-01-11T16:50:16.572Z,0
2023-01-11T16:51:32.599Z,0
2023-01-11T16:52:48.939Z,0
2023-01-11T16:54:05.124Z,0
2023-01-11T16:55:21.326Z,0
2023-01-11T16:56:36.387Z,0
2023-01-11T16:57:52.558Z,0
2023-01-11T16:59:08.752Z,0
2023-01-11T17:00:25.092Z,0
2023-01-11T17:01:41.289Z,0
2023-01-11T17:02:57.472Z,0
2023-01-11T17:04:13.652Z,0
2023-01-11T17:05:29.704Z,0
2023-01-11T17:06:45.891Z,0
2023-01-11T17:08:02.220Z,0
2023-01-11T17:09:18.418Z,0
2023-01-11T17:10:34.613Z,0
2023-01-11T17:11:50.802Z,0
2023-01-11T17:13:05.993Z,0
2023-01-11T17:14:22.029Z,0
2023-01-11T17:15:38.374Z,0
2023-01-11T17:16:54.559Z,0
2023-01-11T17:18:10.747Z,0
2023-01-11T17:19:26.801Z,0
2023-01-11T17:20:43.136Z,0
2023-01-11T17:21:59.168Z,0
2023-01-11T17:23:15.359Z,0
2023-01-11T17:24:31.697Z,0
2023-01-11T17:25:47.897Z,0
2023-01-11T17:27:04.079Z,0
2023-01-11T17:28:20.277Z,0
2023-01-11T17:29:35.311Z,0
2023-01-11T17:30:51.508Z,0
2023-01-11T17:32:07.845Z,0
2023-01-11T17:33:24.037Z,0
2023-01-11T17:34:40.229Z,0
2023-01-11T17:35:56.275Z,0
2023-01-11T17:37:12.459Z,0
2023-01-11T17:38:28.806Z,0
2023-01-11T17:39:44.825Z,0
2023-01-11T17:41:01.173Z,0
2023-01-11T17:42:17.375Z,0
2023-01-11T17:43:33.558Z,0
2023-01-11T17:44:49.578Z,0
2023-01-11T17:46:04.945Z,0
2023-01-11T17:47:21.144Z,0
2023-01-11T17:48:37.323Z,0
2023-01-11T17:49:53.526Z,0
2023-01-11T17:51:09.704Z,0
2023-01-11T17:52:25.734Z,0
2023-01-11T17:53:42.093Z,0
2023-01-11T17:54:58.113Z,0
2023-01-11T17:56:14.470Z,0
2023-01-11T17:57:30.660Z,0
2023-01-11T17:58:46.831Z,0
2023-01-11T18:00:02.878Z,0
2023-01-11T18:01:19.057Z,0
2023-01-11T18:02:34.426Z,0
2023-01-11T18:03:50.609Z,0
2023-01-11T18:05:06.798Z,0
2023-01-11T18:06:22.991Z,0
2023-01-11T18:07:39.015Z,0
2023-01-11T18:08:55.210Z,0
2023-01-11T18:10:10.587Z,0
2023-01-11T18:11:26.771Z,0
2023-01-11T18:12:42.956Z,0
2023-01-11T18:13:59.150Z,0
2023-01-11T18:15:15.167Z,0
2023-01-11T18:16:31.527Z,0
2023-01-11T18:17:47.727Z,0
2023-01-11T18:19:03.909Z,0
2023-01-11T18:20:19.923Z,0
2023-01-11T18:21:36.111Z,0
2023-01-11T18:22:52.300Z,0
2023-01-11T18:24:08.657Z,0
2023-01-11T18:25:24.681Z,0
2023-01-11T18:26:39.904Z,0
2023-01-11T18:27:56.076Z,0
2023-01-11T18:29:12.431Z,0
2023-01-11T18:30:28.458Z,0
2023-01-11T18:31:44.824Z,0
2023-01-11T18:33:01.007Z,0
2023-01-11T18:34:17.197Z,0
2023-01-11T18:35:33.385Z,0